WS Maaseik 1 Meer informatie WS Maaseik 1


WS Maaseik 2 Meer informatie WS Maaseik 2


Regen radar Meer informatie rain snow radar


Bezoek onze andere website:

Vorige versie
weerstation Maaseik


Bezoek ook eens deze sites:

Weerstation Geleen



Het weer levert geen direct gevaar op.    Er zijn geen waarschuwingen afgegeven.

METAR rapporten vliegvelden

   
EBBR - Brussels International Airport, Belgium
Afstand tot: W 14 km
Gewijzigd: 15-05-2021 19:50
Licht bewolkt  
Licht bewolkt  
   Wind: WZW 18.5 km/h
Wind: WZW 18.5 km/h
Temperatuur: 13°C
Dauwpunt: 8°C
Vochtigheid: 72%
Barometer: 1000 hPa
Bewolking: Few Clouds
Zicht: meer dan 10 km
Bewolking: Licht bewolkt 2800 ft
EBBR 151750Z 25010KT 9999 FEW028 13/08 Q1000 NOSIG
EBBE - Beauvechain (Bevekom), Belgium
Afstand tot: ZZO 17 km
Gewijzigd: 15-05-2021 19:55
Grotendeels bewolkt  
Grotendeels bewolkt  
   Wind: WZW 20.4 km/h
Wind: WZW 20.4 km/h
Temperatuur: 12°C
Dauwpunt: 7°C
Vochtigheid: 72%
Barometer: 1000 hPa
Bewolking: Mostly Cloudy
Zicht: meer dan 10 km
Bewolking: Grotendeels bewolkt 5500 ft,
Grotendeels bewolkt 7000 ft
EBBE 151755Z AUTO 24011KT 9999 BKN055/// BKN070/// 12/07 Q1000 BLU
EBDT - Schaffen, Belgium
Afstand tot: ONO 29 km
Gewijzigd: 15-05-2021 19:55
Helder  
Helder  
   Wind: varieert 3.7 km/h
Wind: varieert 3.7 km/h
Temperatuur: 12°C
Dauwpunt: 9°C
Vochtigheid: 82%
Barometer: 1000 hPa
Bewolking: Clear
Zicht: meer dan 10 km
Bewolking: Helder ft
EBDT 151755Z AUTO VRB02KT 9999 NCD 12/09 Q1000 BLU
EBAW - Antwerp/Deurne, Belgium
Afstand tot: NNW 38 km
Gewijzigd: 15-05-2021 19:50
Licht bewolkt  
Licht bewolkt  
   Wind: ZW 7.4 km/h
Wind: ZW 7.4 km/h
Temperatuur: 13°C
Dauwpunt: 8°C
Vochtigheid: 72%
Barometer: 1000 hPa
Bewolking: Few Clouds
Zicht: meer dan 10 km
Bewolking: Licht bewolkt 2200 ft
EBAW 151750Z 22004KT 9999 FEW022 13/08 Q1000 NOSIG
EBCI - Charleroi/Gosselies, Belgium
Afstand tot: ZZW 51 km
Gewijzigd: 15-05-2021 19:50
Grotendeels bewolkt  
Grotendeels bewolkt  
   Wind: ZW 22.2 km/h
Wind: ZW 22.2 km/h
Temperatuur: 10°C
Voelt als: 7°C
Dauwpunt: 8°C
Vochtigheid: 88%
Barometer: 1001 hPa
Bewolking: Mostly Cloudy
Zicht: meer dan 10 km
Bewolking: Licht bewolkt 2500 ft,
Grotendeels bewolkt 4000 ft
EBCI 151750Z 22012KT 9999 FEW025TCU BKN040 10/08 Q1001 TEMPO 4000 SHRA SCT015
EBLG - Bierset/Liege, Belgium
Afstand tot: OZO 60 km
Gewijzigd: 15-05-2021 19:50
Licht bewolkt  
Licht bewolkt  
   Wind: WZW 13 km/h
Wind: WZW 13 km/h
Temperatuur: 11°C
Dauwpunt: 7°C
Vochtigheid: 77%
Barometer: 1001 hPa
Bewolking: Few Clouds
Zicht: meer dan 10 km
Bewolking: Licht bewolkt 1000 ft
EBLG 151750Z 24007KT 9999 FEW010 11/07 Q1001 TEMPO 2500 SHRA

Script ontwikkeld door  Saratoga-weather.org Aangepast voor de template door  Weerstation Leuven

U vindt ons ook hier:

Het Weer Aktueel

Weather Underground

AWEKAS